Time;durP1;ratioP1;P1;durP2;ratioP2;P2;SDS_P1;SDS_P2;PMS_P1;PMS_P2;Temp;Humidity;BMP_temperature;BMP_pressure;BME280_temperature;BME280_humidity;BME280_pressure;Samples;Min_cycle;Max_cycle;Signal;HPM_P1;HPM_P2
2022/03/17 02:27:55;;;;;;;35.28;26.50;;;8.40;99.90;;;;;;4996811;28;20222;-83
2022/03/17 02:30:23;;;;;;;33.63;28.20;;;8.40;99.90;;;;;;4997090;28;20207;-84
2022/03/17 02:32:50;;;;;;;34.83;27.98;;;8.50;99.90;;;;;;4995976;28;20242;-83
2022/03/17 02:35:20;;;;;;;34.15;26.20;;;8.50;99.90;;;;;;4996760;28;20224;-83
2022/03/17 02:37:47;;;;;;;36.58;27.92;;;8.50;99.90;;;;;;4979890;28;20208;-83
2022/03/17 02:40:14;;;;;;;35.45;28.15;;;8.50;99.90;;;;;;4977943;28;20296;-84
2022/03/17 02:42:41;;;;;;;33.22;26.55;;;8.60;99.90;;;;;;4978185;28;20204;-83
2022/03/17 02:45:11;;;;;;;40.97;31.58;;;8.60;99.90;;;;;;4977424;28;20225;-83
2022/03/17 02:47:39;;;;;;;33.28;28.88;;;8.60;99.90;;;;;;4997662;28;20201;-82
2022/03/17 02:50:06;;;;;;;42.97;29.75;;;8.70;99.90;;;;;;4997529;28;20227;-84
2022/03/17 02:52:33;;;;;;;43.92;32.92;;;8.70;99.90;;;;;;4984617;28;20208;-83
2022/03/17 02:55:00;;;;;;;34.22;27.30;;;8.70;99.90;;;;;;4981534;28;20577;-83
2022/03/17 02:57:27;;;;;;;37.15;30.30;;;8.70;99.90;;;;;;4992135;28;20209;-84
2022/03/17 02:59:54;;;;;;;33.75;28.80;;;8.80;99.90;;;;;;4993168;28;20200;-83
2022/03/17 03:02:23;;;;;;;35.70;30.08;;;8.80;99.90;;;;;;4977214;28;20217;-83
2022/03/17 03:04:50;;;;;;;36.75;29.05;;;8.80;99.90;;;;;;4980328;28;20220;-84
2022/03/17 03:07:17;;;;;;;35.33;27.80;;;8.80;99.90;;;;;;4983555;28;20209;-83
2022/03/17 03:09:44;;;;;;;33.63;27.80;;;8.90;99.90;;;;;;4978620;28;20213;-84
2022/03/17 03:12:11;;;;;;;35.75;30.27;;;8.90;99.90;;;;;;4995688;28;20203;-83
2022/03/17 03:14:38;;;;;;;37.20;28.30;;;8.90;99.90;;;;;;4996152;28;20383;-83
2022/03/17 03:17:06;;;;;;;38.17;29.85;;;8.90;99.90;;;;;;4980043;28;20313;-83
2022/03/17 03:19:34;;;;;;;34.42;28.45;;;8.90;99.90;;;;;;4977298;28;20209;-82
2022/03/17 03:22:01;;;;;;;34.50;28.67;;;8.90;99.90;;;;;;4997429;28;20208;-83
2022/03/17 03:24:28;;;;;;;38.42;29.92;;;8.90;99.90;;;;;;5001871;28;20200;-83
2022/03/17 03:26:55;;;;;;;35.40;28.63;;;8.90;99.90;;;;;;4982871;28;20300;-84
2022/03/17 03:29:22;;;;;;;36.65;30.58;;;8.80;99.90;;;;;;4976895;28;20212;-84
2022/03/17 03:31:50;;;;;;;40.45;32.47;;;8.80;99.90;;;;;;4993297;28;20274;-83
2022/03/17 03:34:17;;;;;;;39.92;32.38;;;8.70;99.90;;;;;;4996242;28;20232;-84
2022/03/17 03:39:30;;;;;;;38.25;30.90;;;8.60;99.90;;;;;;4988332;28;20239;-84
2022/03/17 03:41:57;;;;;;;36.10;28.60;;;8.60;99.90;;;;;;4999693;28;20211;-83
2022/03/17 03:44:24;;;;;;;33.55;29.17;;;8.60;99.90;;;;;;4996260;28;20241;-83
2022/03/17 03:46:50;;;;;;;40.15;29.95;;;8.60;99.90;;;;;;4993731;28;20224;-83
2022/03/17 03:49:17;;;;;;;35.03;30.75;;;8.60;99.90;;;;;;4987769;28;20216;-83
2022/03/17 03:51:45;;;;;;;39.13;30.38;;;8.60;99.90;;;;;;4992091;28;20207;-83
2022/03/17 03:54:16;;;;;;;38.25;30.13;;;8.60;99.90;;;;;;4981416;28;20228;-82
2022/03/17 03:56:44;;;;;;;34.45;28.80;;;8.60;99.90;;;;;;4996765;28;20232;-83
2022/03/17 03:59:13;;;;;;;40.50;32.42;;;8.60;99.90;;;;;;4993437;28;20212;-83
2022/03/17 04:01:40;;;;;;;38.10;31.35;;;8.60;99.90;;;;;;4988462;28;20209;-82
2022/03/17 04:04:07;;;;;;;39.45;30.38;;;8.60;99.90;;;;;;4987387;28;20197;-83
2022/03/17 04:06:35;;;;;;;34.72;29.00;;;8.60;99.90;;;;;;4978659;28;20234;-82
2022/03/17 04:09:04;;;;;;;42.58;34.70;;;8.50;99.90;;;;;;4977114;28;20289;-83
2022/03/17 04:11:30;;;;;;;34.88;27.95;;;8.50;99.90;;;;;;4986758;28;20279;-83
2022/03/17 04:13:57;;;;;;;41.00;29.40;;;8.50;99.90;;;;;;4995745;28;20224;-83
2022/03/17 04:16:24;;;;;;;37.95;28.83;;;8.60;99.90;;;;;;4996361;28;20574;-83
2022/03/17 04:18:50;;;;;;;39.40;29.27;;;8.60;99.90;;;;;;4994963;28;20210;-83
2022/03/17 04:21:18;;;;;;;40.15;32.20;;;8.50;99.90;;;;;;4976016;28;20220;-83
2022/03/17 04:23:44;;;;;;;35.28;30.83;;;8.60;99.90;;;;;;4977103;28;20247;-83
2022/03/17 04:26:12;;;;;;;39.75;30.40;;;8.60;99.90;;;;;;4976267;28;20241;-83
2022/03/17 04:28:39;;;;;;;38.95;30.23;;;8.70;99.90;;;;;;4989459;28;20596;-83
2022/03/17 04:31:06;;;;;;;37.22;28.65;;;8.60;99.90;;;;;;4995343;28;20677;-83
2022/03/17 04:33:33;;;;;;;41.53;28.13;;;8.60;99.90;;;;;;4983315;28;20235;-83
2022/03/17 04:35:59;;;;;;;34.75;30.10;;;8.60;99.90;;;;;;4979659;28;20222;-83
2022/03/17 04:38:27;;;;;;;38.13;30.40;;;8.70;99.90;;;;;;4990119;28;20218;-83
2022/03/17 04:40:53;;;;;;;38.10;29.08;;;8.60;99.90;;;;;;4999727;28;20208;-83
2022/03/17 04:43:21;;;;;;;32.60;26.60;;;8.70;99.90;;;;;;4989618;28;20204;-83
2022/03/17 04:45:48;;;;;;;36.67;28.95;;;8.70;99.90;;;;;;4980794;28;20235;-84
2022/03/17 04:48:16;;;;;;;37.05;28.73;;;8.70;99.90;;;;;;4979537;28;20598;-83
2022/03/17 04:50:43;;;;;;;37.13;28.77;;;8.70;99.90;;;;;;4980060;28;20208;-83
2022/03/17 04:53:29;;;;;;;44.08;31.10;;;8.80;99.90;;;;;;4998026;28;20219;-83
2022/03/17 04:55:57;;;;;;;35.97;29.45;;;8.80;99.90;;;;;;4998387;28;20258;-83
2022/03/17 04:58:25;;;;;;;36.35;29.48;;;8.80;99.90;;;;;;4990885;28;20204;-83
2022/03/17 05:00:53;;;;;;;32.65;28.20;;;8.80;99.90;;;;;;4979818;28;20232;-83
2022/03/17 05:03:20;;;;;;;34.72;28.35;;;8.80;99.90;;;;;;4998569;28;20573;-84
2022/03/17 05:05:47;;;;;;;38.13;32.15;;;8.80;99.90;;;;;;4999301;28;20611;-83
2022/03/17 05:08:14;;;;;;;37.05;31.13;;;8.80;99.90;;;;;;4980994;28;20674;-83
2022/03/17 05:10:42;;;;;;;37.80;29.70;;;8.70;99.90;;;;;;4987730;28;20208;-83
2022/03/17 05:13:10;;;;;;;40.22;29.65;;;8.60;99.90;;;;;;4998760;28;20243;-83
2022/03/17 05:15:39;;;;;;;35.25;28.70;;;8.60;99.90;;;;;;4992560;28;20223;-83
2022/03/17 05:18:06;;;;;;;37.58;29.30;;;8.70;99.90;;;;;;4978983;28;20215;-83
2022/03/17 05:20:35;;;;;;;34.25;27.73;;;8.70;99.90;;;;;;4983641;28;20275;-83
2022/03/17 05:23:04;;;;;;;38.10;31.73;;;8.70;99.90;;;;;;4996085;28;20316;-83
2022/03/17 05:25:31;;;;;;;38.97;30.00;;;8.80;99.90;;;;;;4992912;28;20224;-83
2022/03/17 05:27:59;;;;;;;36.22;28.42;;;8.80;99.90;;;;;;4978131;28;20189;-83
2022/03/17 05:30:26;;;;;;;39.47;30.05;;;8.80;99.90;;;;;;4978193;28;20198;-83
2022/03/17 05:32:54;;;;;;;38.42;30.17;;;8.80;99.90;;;;;;4996488;28;20583;-84
2022/03/17 05:35:21;;;;;;;33.20;26.88;;;8.80;99.90;;;;;;4997370;28;20242;-83
2022/03/17 05:37:48;;;;;;;37.47;29.77;;;8.80;99.90;;;;;;4996897;28;20215;-83
2022/03/17 05:40:17;;;;;;;35.83;28.15;;;8.80;99.90;;;;;;4997057;28;20302;-83
2022/03/17 05:42:45;;;;;;;39.72;31.20;;;8.80;99.90;;;;;;4977884;28;20205;-83
2022/03/17 05:45:12;;;;;;;39.42;30.17;;;8.70;99.90;;;;;;4977305;28;20232;-83
2022/03/17 05:47:41;;;;;;;39.80;30.08;;;8.70;99.90;;;;;;4996451;28;20207;-83
2022/03/17 05:50:12;;;;;;;43.70;32.55;;;8.60;99.90;;;;;;4997240;28;20601;-84
2022/03/17 05:52:40;;;;;;;37.47;29.10;;;8.60;99.90;;;;;;4996466;28;20204;-84
2022/03/17 05:55:07;;;;;;;36.00;28.40;;;8.50;99.90;;;;;;4977339;28;20591;-83
2022/03/17 05:57:35;;;;;;;40.63;30.95;;;8.50;99.90;;;;;;4993611;28;20210;-83
2022/03/17 06:00:01;;;;;;;35.05;29.38;;;8.50;99.90;;;;;;4997859;28;20270;-83
2022/03/17 06:02:28;;;;;;;39.08;29.80;;;8.50;99.90;;;;;;5004081;28;20214;-83
2022/03/17 06:04:55;;;;;;;40.20;31.38;;;8.60;99.90;;;;;;5003889;28;20208;-82
2022/03/17 06:07:23;;;;;;;38.40;30.58;;;8.70;99.90;;;;;;4996691;28;20204;-83
2022/03/17 06:10:03;;;;;;;33.88;29.73;;;8.70;99.90;;;;;;4997467;28;20213;-84
2022/03/17 06:12:34;;;;;;;37.35;28.85;;;8.80;99.90;;;;;;4976270;28;20301;-83
2022/03/17 06:15:02;;;;;;;39.95;30.85;;;8.70;99.90;;;;;;4977520;28;20239;-83
2022/03/17 06:17:42;;;;;;;38.42;29.25;;;8.70;99.90;;;;;;4983057;28;20196;-83
2022/03/17 06:20:11;;;;;;;36.83;29.17;;;8.80;99.90;;;;;;4994231;28;20211;-84
2022/03/17 06:22:41;;;;;;;38.50;30.33;;;8.80;99.90;;;;;;4978987;28;20216;-83
2022/03/17 06:25:10;;;;;;;36.10;27.70;;;8.70;99.90;;;;;;4977939;28;20227;-83
2022/03/17 06:27:37;;;;;;;39.90;31.63;;;8.70;99.90;;;;;;4978358;28;20683;-83
2022/03/17 06:30:04;;;;;;;35.58;29.65;;;8.70;99.90;;;;;;4989608;28;20207;-84
2022/03/17 06:32:33;;;;;;;38.45;28.67;;;8.70;99.90;;;;;;5000564;28;20291;-82
2022/03/17 06:35:00;;;;;;;37.75;28.52;;;8.80;99.90;;;;;;4999200;28;20221;-84
2022/03/17 06:37:27;;;;;;;38.42;27.80;;;8.90;99.90;;;;;;4996732;28;20216;-84
2022/03/17 06:39:55;;;;;;;36.67;26.55;;;8.90;99.90;;;;;;4996484;28;20574;-84
2022/03/17 06:42:22;;;;;;;32.80;28.17;;;9.00;99.90;;;;;;4986715;28;20209;-83
2022/03/17 06:44:49;;;;;;;35.50;28.67;;;9.10;99.90;;;;;;4976687;28;20454;-83
2022/03/17 06:47:16;;;;;;;38.58;30.00;;;9.20;99.90;;;;;;4982769;28;20221;-83
2022/03/17 06:49:43;;;;;;;32.08;25.65;;;9.10;99.90;;;;;;4994011;28;20290;-82
2022/03/17 06:52:09;;;;;;;38.78;29.35;;;9.20;99.90;;;;;;5005058;28;20272;-82
2022/03/17 06:54:39;;;;;;;37.65;30.30;;;9.20;99.90;;;;;;5003641;28;20225;-82
2022/03/17 06:57:07;;;;;;;35.70;29.13;;;9.20;99.90;;;;;;5004380;28;20230;-82
2022/03/17 06:59:34;;;;;;;33.53;26.53;;;9.40;99.90;;;;;;5004659;28;20209;-82
2022/03/17 07:02:00;;;;;;;36.72;28.45;;;9.40;99.90;;;;;;5004810;28;20453;-83
2022/03/17 07:04:27;;;;;;;35.27;27.80;;;9.40;99.90;;;;;;4995885;28;20288;-83
2022/03/17 07:06:54;;;;;;;36.43;28.47;;;9.50;99.90;;;;;;4994190;28;20475;-83
2022/03/17 07:09:21;;;;;;;36.10;30.73;;;9.50;99.90;;;;;;4994905;28;20467;-82
2022/03/17 07:11:48;;;;;;;37.33;28.77;;;9.60;99.90;;;;;;4983256;28;20213;-83
2022/03/17 07:14:16;;;;;;;37.20;29.43;;;9.60;99.90;;;;;;4990224;28;20843;-82
2022/03/17 07:16:44;;;;;;;35.93;29.60;;;9.70;99.90;;;;;;5004511;28;20544;-83
2022/03/17 07:19:10;;;;;;;37.00;30.30;;;9.70;99.90;;;;;;4992154;28;20462;-83
2022/03/17 07:21:38;;;;;;;36.70;29.73;;;9.80;99.90;;;;;;4987873;28;20545;-83
2022/03/17 07:24:05;;;;;;;38.87;30.53;;;9.90;99.90;;;;;;5001913;28;20645;-82
2022/03/17 07:26:32;;;;;;;33.97;28.83;;;9.90;99.90;;;;;;4999785;28;20485;-82
2022/03/17 07:29:00;;;;;;;32.80;28.20;;;10.00;99.90;;;;;;5000899;28;20933;-83
2022/03/17 07:31:33;;;;;;;35.93;28.13;;;10.00;99.90;;;;;;4998244;28;20466;-83
2022/03/17 07:34:02;;;;;;;35.37;29.57;;;10.10;99.90;;;;;;4986403;28;20548;-83
2022/03/17 07:36:41;;;;;;;38.80;30.40;;;10.00;99.90;;;;;;4993732;28;20525;-83
2022/03/17 07:39:08;;;;;;;37.40;29.90;;;10.10;99.90;;;;;;4997760;28;20465;-84
2022/03/17 07:44:48;;;;;;;34.93;28.30;;;10.30;99.90;;;;;;4987027;28;20504;-84
2022/03/17 07:47:19;;;;;;;35.03;29.13;;;10.30;99.90;;;;;;5001424;28;20539;-84
2022/03/17 07:49:47;;;;;;;35.90;29.43;;;10.40;99.90;;;;;;5000949;28;20529;-84
2022/03/17 07:52:18;;;;;;;38.33;30.33;;;10.50;99.90;;;;;;5001610;28;20977;-84
2022/03/17 07:54:45;;;;;;;39.67;29.30;;;10.60;99.90;;;;;;5009483;28;20920;-84
2022/03/17 07:57:15;;;;;;;36.53;30.90;;;10.70;99.90;;;;;;5014958;28;20515;-84
2022/03/17 07:59:44;;;;;;;35.83;27.87;;;10.70;99.90;;;;;;5006842;28;20552;-85
2022/03/17 08:02:11;;;;;;;33.93;29.57;;;10.80;99.90;;;;;;4997563;28;20469;-83
2022/03/17 08:04:40;;;;;;;38.13;29.47;;;10.80;99.90;;;;;;4997092;28;20458;-83
2022/03/17 08:07:06;;;;;;;35.77;27.00;;;10.80;99.90;;;;;;4997649;28;20576;-83
2022/03/17 08:09:33;;;;;;;41.30;31.80;;;10.80;99.90;;;;;;4995453;28;21406;-83
2022/03/17 08:12:00;;;;;;;37.30;28.87;;;11.00;99.90;;;;;;4987023;28;20451;-82
2022/03/17 08:14:26;;;;;;;36.87;29.37;;;10.90;99.90;;;;;;4975099;28;20501;-82
2022/03/17 08:16:54;;;;;;;39.30;33.00;;;10.90;99.90;;;;;;4975526;28;21010;-82
2022/03/17 08:19:22;;;;;;;38.67;30.07;;;11.00;99.90;;;;;;4974753;28;20977;-82
2022/03/17 08:21:50;;;;;;;37.70;30.30;;;11.00;99.90;;;;;;4984295;28;20476;-81
2022/03/17 08:24:17;;;;;;;40.40;31.63;;;11.00;99.90;;;;;;4977489;28;20458;-82
2022/03/17 08:26:43;;;;;;;52.80;31.27;;;11.10;99.90;;;;;;5027547;22;20504;-81
2022/03/17 08:29:10;;;;;;;40.63;31.27;;;11.10;99.90;;;;;;5033051;28;20443;-81
2022/03/17 08:31:37;;;;;;;40.13;30.80;;;11.10;99.90;;;;;;5034875;28;20443;-81
2022/03/17 08:34:04;;;;;;;37.50;31.80;;;11.00;99.90;;;;;;5034428;28;20443;-80
2022/03/17 08:36:30;;;;;;;35.20;29.70;;;11.00;99.90;;;;;;5027624;28;20537;-81
2022/03/17 08:38:58;;;;;;;34.63;30.00;;;11.10;99.90;;;;;;5029456;28;20477;-82
2022/03/17 08:41:25;;;;;;;41.93;31.37;;;11.00;99.90;;;;;;5015363;28;20458;-81
2022/03/17 08:43:52;;;;;;;34.43;27.73;;;11.10;99.90;;;;;;5009889;28;20464;-81
2022/03/17 08:49:23;;;;;;;35.40;29.07;;;11.20;99.90;;;;;;5026161;28;20442;-81
2022/03/17 08:51:51;;;;;;;45.60;31.30;;;11.30;99.90;;;;;;5030331;28;21006;-80
2022/03/17 08:54:22;;;;;;;37.80;29.47;;;11.20;99.90;;;;;;5018560;28;21000;-80
2022/03/17 08:56:49;;;;;;;34.33;27.07;;;11.30;99.90;;;;;;5026646;28;20504;-80
2022/03/17 08:59:15;;;;;;;39.33;29.50;;;11.30;99.90;;;;;;5019962;28;20468;-81
2022/03/17 09:01:42;;;;;;;35.60;30.33;;;11.30;99.90;;;;;;5021168;28;20456;-81
2022/03/17 09:04:11;;;;;;;39.47;31.80;;;11.30;99.90;;;;;;5036412;28;20456;-81
2022/03/17 09:06:41;;;;;;;36.50;29.17;;;11.20;99.90;;;;;;5025518;28;21258;-80
2022/03/17 09:09:08;;;;;;;30.17;26.80;;;11.20;99.90;;;;;;5019414;28;20514;-80
2022/03/17 09:11:36;;;;;;;34.57;28.90;;;11.30;99.90;;;;;;5018426;28;20467;-81
2022/03/17 09:14:04;;;;;;;36.53;29.20;;;11.30;99.90;;;;;;5023692;28;20464;-80
2022/03/17 09:16:31;;;;;;;35.70;28.63;;;11.20;99.90;;;;;;5034740;28;20497;-79
2022/03/17 09:18:58;;;;;;;39.60;29.40;;;11.30;99.90;;;;;;5033827;28;20449;-79
2022/03/17 09:21:27;;;;;;;31.93;27.47;;;11.50;99.90;;;;;;5020773;28;20474;-80
2022/03/17 09:23:54;;;;;;;41.67;30.40;;;11.60;99.90;;;;;;5021047;28;20814;-80
2022/03/17 09:26:21;;;;;;;34.80;28.53;;;11.70;99.90;;;;;;5020488;28;20481;-80
2022/03/17 09:28:50;;;;;;;33.20;29.60;;;11.60;99.90;;;;;;5019656;28;20457;-80
2022/03/17 09:31:17;;;;;;;40.67;30.83;;;11.70;99.90;;;;;;5019587;28;20459;-80
2022/03/17 09:33:45;;;;;;;32.93;28.60;;;11.80;99.90;;;;;;5019274;28;20454;-79
2022/03/17 09:36:12;;;;;;;34.80;29.63;;;11.90;99.90;;;;;;5019433;28;20575;-80
2022/03/17 09:38:39;;;;;;;36.33;29.50;;;12.00;99.90;;;;;;5019255;28;20925;-80
2022/03/17 09:41:23;;;;;;;35.40;30.10;;;12.00;99.90;;;;;;5019592;28;20911;-80
2022/03/17 09:43:52;;;;;;;35.43;29.40;;;12.20;99.90;;;;;;5019987;28;20457;-81
2022/03/17 09:46:21;;;;;;;35.93;28.90;;;12.40;99.90;;;;;;5019241;28;20458;-81
2022/03/17 09:48:52;;;;;;;34.53;25.83;;;12.50;99.90;;;;;;5019196;28;20461;-81
2022/03/17 09:51:22;;;;;;;32.70;27.07;;;12.50;99.90;;;;;;5019299;28;20445;-80
2022/03/17 09:53:53;;;;;;;34.63;28.23;;;12.60;99.90;;;;;;5019377;28;20445;-81
2022/03/17 09:56:23;;;;;;;33.87;29.10;;;12.70;99.90;;;;;;5018827;28;20490;-81
2022/03/17 09:58:51;;;;;;;35.00;28.10;;;12.80;99.90;;;;;;5018945;28;20464;-81
2022/03/17 10:01:20;;;;;;;35.73;27.67;;;13.00;99.90;;;;;;5019167;28;20802;-81
2022/03/17 10:03:48;;;;;;;30.60;24.53;;;13.10;99.90;;;;;;5019715;28;20462;-81
2022/03/17 10:06:16;;;;;;;32.10;26.00;;;13.20;99.70;;;;;;5019213;28;20466;-81
2022/03/17 10:08:45;;;;;;;28.73;25.37;;;13.10;99.30;;;;;;5018485;28;20449;-81
2022/03/17 10:11:16;;;;;;;33.90;29.53;;;13.20;99.20;;;;;;5018195;28;20453;-81
2022/03/17 10:13:45;;;;;;;28.33;25.23;;;13.20;99.30;;;;;;5019091;28;20454;-81
2022/03/17 10:16:18;;;;;;;31.00;27.13;;;13.10;99.40;;;;;;5019023;28;20490;-81
2022/03/17 10:18:46;;;;;;;32.00;27.10;;;13.20;99.40;;;;;;5019854;28;20450;-80
2022/03/17 10:21:16;;;;;;;29.60;25.23;;;13.20;99.20;;;;;;5028537;28;20453;-81
2022/03/17 10:23:52;;;;;;;29.80;24.07;;;13.10;99.40;;;;;;5027691;28;20450;-81
2022/03/17 10:26:32;;;;;;;27.20;24.17;;;13.00;99.50;;;;;;5027474;28;20492;-80
2022/03/17 10:29:05;;;;;;;33.83;26.00;;;12.90;99.90;;;;;;5020552;28;20442;-81
2022/03/17 10:31:33;;;;;;;28.77;24.13;;;13.10;99.90;;;;;;5019042;28;20454;-81
2022/03/17 10:34:04;;;;;;;30.07;24.73;;;13.20;99.90;;;;;;5018897;28;20450;-81
2022/03/17 10:36:32;;;;;;;28.50;24.03;;;13.20;99.80;;;;;;5018588;28;20521;-81
2022/03/17 10:38:59;;;;;;;34.70;27.47;;;13.00;99.90;;;;;;5017704;28;20457;-81
2022/03/17 10:41:25;;;;;;;33.80;26.30;;;13.10;99.90;;;;;;5018103;28;20464;-81
2022/03/17 10:43:59;;;;;;;25.27;22.60;;;13.30;99.80;;;;;;5018640;28;20453;-81
2022/03/17 10:46:26;;;;;;;28.70;23.80;;;13.30;99.90;;;;;;5018227;28;20566;-81
2022/03/17 10:48:55;;;;;;;33.23;26.73;;;13.20;99.80;;;;;;5018503;28;20445;-82
2022/03/17 10:51:33;;;;;;;31.03;24.90;;;13.10;99.90;;;;;;5018188;28;20454;-82
2022/03/17 10:54:05;;;;;;;30.40;24.43;;;13.00;99.90;;;;;;5018719;28;20457;-83
2022/03/17 10:56:32;;;;;;;35.13;26.40;;;12.90;99.90;;;;;;5018598;28;20498;-82
2022/03/17 10:59:00;;;;;;;31.77;25.10;;;12.70;99.90;;;;;;5018126;28;20457;-81
2022/03/17 11:01:38;;;;;;;30.70;26.47;;;12.80;99.90;;;;;;5018765;28;20515;-82
2022/03/17 11:04:07;;;;;;;29.10;23.63;;;12.70;99.90;;;;;;5018640;28;20460;-82
2022/03/17 11:06:35;;;;;;;30.30;27.00;;;12.60;99.90;;;;;;5017997;28;20478;-81
2022/03/17 11:09:02;;;;;;;30.10;22.97;;;12.60;99.90;;;;;;5017683;28;20463;-81
2022/03/17 11:11:29;;;;;;;33.80;27.40;;;12.70;99.90;;;;;;5017525;28;20457;-81
2022/03/17 11:13:57;;;;;;;30.77;24.33;;;12.90;99.90;;;;;;5018137;28;20476;-81
2022/03/17 11:16:33;;;;;;;35.33;25.57;;;12.90;99.90;;;;;;5021691;28;20501;-81
2022/03/17 11:19:01;;;;;;;35.50;23.03;;;12.90;99.90;;;;;;5017175;28;20449;-81
2022/03/17 11:21:31;;;;;;;36.03;27.10;;;12.80;99.90;;;;;;5032511;28;20835;-82
2022/03/17 11:24:04;;;;;;;29.67;23.77;;;12.60;99.90;;;;;;5022351;28;20777;-82
2022/03/17 11:26:37;;;;;;;31.33;23.67;;;12.60;99.90;;;;;;5017886;28;20491;-83
2022/03/17 11:29:09;;;;;;;31.37;24.10;;;12.50;99.90;;;;;;5018041;28;20461;-82
2022/03/17 11:31:53;;;;;;;32.73;24.27;;;12.30;99.90;;;;;;5017464;28;20460;-82
2022/03/17 11:34:46;;;;;;;33.73;21.80;;;12.30;99.90;;;;;;5031016;28;20458;-84
2022/03/17 11:37:33;;;;;;;28.87;21.80;;;12.20;99.90;;;;;;5043954;28;20519;-84
2022/03/17 11:40:06;;;;;;;29.70;23.27;;;11.90;99.90;;;;;;5027766;28;20453;-84
2022/03/17 11:42:35;;;;;;;29.73;23.00;;;11.90;99.90;;;;;;5022279;28;20449;-81
2022/03/17 11:45:11;;;;;;;29.30;23.80;;;11.80;99.90;;;;;;5022777;28;20478;-82
2022/03/17 11:47:38;;;;;;;33.17;24.20;;;11.60;99.90;;;;;;5040580;28;20463;-81
2022/03/17 11:50:25;;;;;;;32.30;24.30;;;11.50;99.90;;;;;;5038752;28;20448;-81
2022/03/17 11:52:58;;;;;;;33.70;26.10;;;11.30;99.90;;;;;;4996311;28;20454;-81
2022/03/17 11:55:36;;;;;;;29.37;24.50;;;11.40;99.90;;;;;;5030038;28;20484;-82
2022/03/17 11:58:24;;;;;;;29.67;25.30;;;11.40;99.90;;;;;;5039613;28;20476;-81
2022/03/17 12:00:53;;;;;;;34.30;27.13;;;11.20;99.90;;;;;;5014251;28;20511;-80
2022/03/17 12:03:30;;;;;;;36.43;27.60;;;11.10;99.90;;;;;;5023504;28;20459;-81
2022/03/17 12:06:13;;;;;;;35.77;26.07;;;11.00;99.90;;;;;;5035503;28;20455;-80
2022/03/17 12:08:42;;;;;;;36.87;26.33;;;10.80;99.90;;;;;;5036931;28;20450;-81
2022/03/17 12:11:11;;;;;;;38.60;27.30;;;10.60;99.90;;;;;;5034704;28;20527;-80
2022/03/17 12:13:38;;;;;;;50.67;32.47;;;10.40;99.90;;;;;;5025647;28;20459;-80
2022/03/17 12:16:06;;;;;;;47.13;30.97;;;10.30;99.90;;;;;;5033630;28;20490;-79
2022/03/17 12:19:00;;;;;;;44.83;32.00;;;10.30;99.90;;;;;;5015223;28;20459;-79
2022/03/17 12:22:00;;;;;;;54.43;32.70;;;10.30;99.90;;;;;;5013908;28;20456;-80
2022/03/17 12:24:40;;;;;;;46.20;33.80;;;10.40;99.90;;;;;;5020189;28;20749;-81
2022/03/17 12:27:11;;;;;;;45.80;32.47;;;10.40;99.90;;;;;;4995840;28;20508;-80
2022/03/17 12:29:38;;;;;;;49.77;33.80;;;10.50;99.90;;;;;;5015355;28;20448;-80
2022/03/17 12:32:07;;;;;;;43.10;34.00;;;10.50;99.90;;;;;;5020133;28;21005;-81
2022/03/17 12:34:35;;;;;;;49.50;36.30;;;10.50;99.90;;;;;;5020634;28;20461;-81
2022/03/17 12:37:03;;;;;;;44.50;34.13;;;10.60;99.90;;;;;;5015425;28;20566;-81
2022/03/17 12:39:31;;;;;;;48.37;34.43;;;10.70;99.90;;;;;;5031801;28;20454;-81
2022/03/17 12:42:01;;;;;;;47.43;34.10;;;10.70;99.90;;;;;;5027556;28;20457;-81
2022/03/17 12:44:28;;;;;;;48.60;33.53;;;10.70;99.90;;;;;;5033846;28;20555;-80
2022/03/17 12:46:56;;;;;;;45.30;34.00;;;10.80;99.90;;;;;;5030365;28;20467;-80
2022/03/17 12:49:23;;;;;;;37.93;31.23;;;10.70;99.90;;;;;;5033436;28;20506;-81
2022/03/17 12:51:50;;;;;;;46.47;32.97;;;10.80;99.90;;;;;;5033813;28;20448;-81
2022/03/17 12:54:18;;;;;;;42.77;33.17;;;10.70;99.90;;;;;;5034375;28;20456;-82
2022/03/17 12:56:51;;;;;;;44.23;32.40;;;10.70;99.90;;;;;;5025865;28;20495;-80
2022/03/17 12:59:20;;;;;;;43.10;32.90;;;10.80;99.90;;;;;;5021303;28;20514;-80
2022/03/17 13:01:48;;;;;;;39.43;30.27;;;10.80;99.90;;;;;;5033857;28;20468;-83
2022/03/17 13:04:15;;;;;;;48.87;36.53;;;10.90;99.90;;;;;;5042759;28;20455;-81
2022/03/17 13:06:54;;;;;;;42.03;33.57;;;10.90;99.90;;;;;;5037597;28;20479;-81
2022/03/17 13:09:26;;;;;;;41.67;32.63;;;11.00;99.90;;;;;;5038591;28;20848;-82
2022/03/17 13:14:47;;;;;;;42.30;31.73;;;11.10;99.90;;;;;;5017727;28;20997;-81
2022/03/17 13:17:14;;;;;;;44.27;32.63;;;10.90;99.90;;;;;;5033048;28;20491;-81
2022/03/17 13:19:45;;;;;;;47.67;36.60;;;11.00;99.90;;;;;;5040209;28;20826;-83
2022/03/17 13:22:12;;;;;;;41.10;33.00;;;11.00;99.90;;;;;;5040695;28;20514;-81
2022/03/17 13:24:39;;;;;;;43.50;32.33;;;11.10;99.90;;;;;;5039034;28;20460;-83
2022/03/17 13:27:06;;;;;;;47.63;34.83;;;11.20;99.90;;;;;;5036390;28;20475;-82
2022/03/17 13:29:35;;;;;;;43.90;35.20;;;11.10;99.90;;;;;;5036916;28;20818;-81
2022/03/17 13:32:04;;;;;;;43.53;34.77;;;11.10;99.90;;;;;;5027138;28;20489;-83
2022/03/17 13:34:33;;;;;;;39.47;32.00;;;11.10;99.90;;;;;;5035152;28;20506;-82
2022/03/17 13:37:02;;;;;;;41.77;32.70;;;11.20;99.90;;;;;;5041689;28;20488;-84
2022/03/17 13:39:34;;;;;;;38.03;33.67;;;11.30;99.90;;;;;;5039829;28;20452;-81
2022/03/17 13:42:06;;;;;;;42.57;33.90;;;11.20;99.90;;;;;;5030014;28;20489;-83
2022/03/17 13:44:43;;;;;;;46.13;31.93;;;11.20;99.90;;;;;;5022499;28;21005;-81
2022/03/17 13:47:18;;;;;;;41.33;32.47;;;11.10;99.90;;;;;;5018149;28;20444;-83
2022/03/17 13:50:16;;;;;;;43.40;34.47;;;11.10;99.90;;;;;;5029813;28;20460;-82
2022/03/17 13:52:53;;;;;;;39.17;31.43;;;11.00;99.90;;;;;;5037167;28;20482;-82
2022/03/17 13:55:21;;;;;;;44.10;33.00;;;11.10;99.90;;;;;;5021817;28;20969;-82
2022/03/17 13:57:48;;;;;;;40.00;30.13;;;11.00;99.90;;;;;;4999232;28;20535;-82
2022/03/17 14:00:21;;;;;;;37.23;27.47;;;11.00;99.90;;;;;;5017807;28;20464;-83
2022/03/17 14:03:19;;;;;;;38.20;29.10;;;10.90;99.90;;;;;;5027123;28;20924;-82
2022/03/17 14:06:13;;;;;;;40.90;33.70;;;10.80;99.90;;;;;;5026853;28;20483;-83
2022/03/17 14:08:46;;;;;;;39.40;32.17;;;10.80;99.90;;;;;;5028958;28;20460;-83
2022/03/17 14:11:14;;;;;;;37.70;32.63;;;10.70;99.90;;;;;;5027539;28;20471;-84
2022/03/17 14:13:44;;;;;;;38.70;28.53;;;10.80;99.90;;;;;;5025518;28;20461;-83
2022/03/17 14:16:12;;;;;;;44.97;35.17;;;10.70;99.90;;;;;;5020439;28;20488;-84
2022/03/17 14:18:42;;;;;;;34.43;27.90;;;10.70;99.90;;;;;;5023086;28;20477;-84
2022/03/17 14:21:09;;;;;;;40.40;28.57;;;10.60;99.90;;;;;;5035333;28;20458;-83
2022/03/17 14:26:22;;;;;;;42.13;30.00;;;10.50;99.90;;;;;;5035475;28;20475;-83
2022/03/17 14:28:49;;;;;;;42.03;28.10;;;10.40;99.90;;;;;;5041657;28;20959;-83
2022/03/17 14:31:17;;;;;;;37.10;29.90;;;10.30;99.90;;;;;;5040500;28;20453;-84
2022/03/17 14:33:46;;;;;;;40.77;30.37;;;10.20;99.90;;;;;;5042598;28;20460;-82
2022/03/17 14:36:13;;;;;;;36.90;26.57;;;10.20;99.90;;;;;;5040756;28;20519;-82
2022/03/17 14:38:41;;;;;;;40.20;27.60;;;10.30;99.90;;;;;;5040443;28;20470;-82
2022/03/17 14:41:12;;;;;;;41.57;29.03;;;10.10;99.90;;;;;;5039403;28;20455;-81
2022/03/17 14:43:39;;;;;;;39.10;30.90;;;10.10;99.90;;;;;;5031411;28;20460;-81
2022/03/17 14:46:06;;;;;;;38.40;27.93;;;10.20;99.90;;;;;;5018650;28;20526;-81
2022/03/17 14:48:33;;;;;;;37.00;27.48;;;10.10;99.90;;;;;;5018751;28;20506;-81
2022/03/17 14:51:03;;;;;;;40.07;31.97;;;10.10;99.90;;;;;;5018246;28;20220;-82
2022/03/17 14:53:31;;;;;;;36.63;29.65;;;10.20;99.90;;;;;;5026448;28;20455;-82
2022/03/17 14:55:58;;;;;;;36.50;27.80;;;10.20;99.90;;;;;;5026171;28;20263;-82
2022/03/17 14:58:25;;;;;;;37.87;30.70;;;10.30;99.90;;;;;;5019220;28;20457;-81
2022/03/17 15:00:52;;;;;;;40.30;32.23;;;10.40;99.90;;;;;;5018930;28;21077;-82
2022/03/17 15:03:19;;;;;;;30.20;24.90;;;10.40;99.90;;;;;;5025247;28;20462;-81
2022/03/17 15:05:46;;;;;;;32.97;27.57;;;10.30;99.90;;;;;;5040983;28;20448;-82
2022/03/17 15:08:14;;;;;;;36.27;30.67;;;10.30;99.90;;;;;;5031487;28;20872;-84
2022/03/17 15:10:41;;;;;;;37.97;28.63;;;10.40;99.90;;;;;;5042253;28;20456;-83
2022/03/17 15:13:08;;;;;;;37.23;28.20;;;10.50;99.90;;;;;;5036794;28;20457;-81
2022/03/17 15:15:35;;;;;;;41.43;31.23;;;10.40;99.90;;;;;;5025242;28;20461;-85
2022/03/17 15:18:03;;;;;;;41.37;29.20;;;10.50;99.90;;;;;;5031082;28;20858;-80
2022/03/17 15:20:30;;;;;;;37.17;29.50;;;10.50;99.90;;;;;;5038864;28;20464;-81
2022/03/17 15:22:56;;;;;;;37.90;30.10;;;10.50;99.90;;;;;;5009945;28;20450;-81